Flight Information

DEPARTURE
TONOPAH, NV
Elevation:
5430
Runways:
15/33 - 7160x75 - ASPH-E
11/29 - 5660x50 - ASPH-L
H1 - 48x48 - ASPH-G
CTAF:
123.000
DESTINATION
,
Elevation:
TPA:
1000 (est.)


6660.3 NM73° True-15° Var57° HDG

Flight Plan:
(click to file on line)

1. Type
2. Aircraft Identification
3. Aircraft Type / Special Equipment
4. True Airspeed
kts
5. Departure Airport
(ICAO code)
6. Arriving Airport
(ICAO code)
7. Cruising Altitude
ft
8. Alternate Airport
(ICAO code)
9. Route of Flight
10. Remarks


00:00:00 Departure ATIS: Destination ATIS:

Clearance Limit:
Route:
Altitude: Expect in minutes
Frequency:
Transponder: (7500 Hijack / 7600 Lost Comms / 7700 Emergency)


KTPH 211656Z AUTO 00000KT 10SM CLR 19/M11 A3046 RMK AO2 SLP265 T01891106
Time: 2021-09-21T16:56:00Z
1632243699
Winds: calm
Visibility: 10.0 sm
Clouds (AGL): CLR
Temperature: 18.9 C
Dew Point: -10.6 C
Pressure: 30.46063 in Hgbr


Notes:

Data extracted from FAA Digital Chart Supplement. Effective: 0901Z Thursday, AUG 12, 2021 to 0901Z Thursday, OCT 7, 2021
Current ATIS data is provided courtisy of PilotEdge.